Time;durP1;ratioP1;P1;durP2;ratioP2;P2;SDS_P1;SDS_P2;PMS_P1;PMS_P2;Temp;Humidity;BMP_temperature;BMP_pressure;BME280_temperature;BME280_humidity;BME280_pressure;Samples;Min_cycle;Max_cycle;Signal;HPM_P1;HPM_P2
2023/10/09 00:03:15;;;;;;;2.33;1.40;;;;;;;;;;5099941;28;20063;-76
2023/10/09 00:05:52;;;;;;;2.95;1.48;;;;;;;;;;5086513;28;20032;-75
2023/10/09 00:08:30;;;;;;;4.18;1.40;;;;;;;;;;5098849;28;20103;-75
2023/10/09 00:10:59;;;;;;;2.22;1.20;;;;;;;;;;5101101;28;20707;-76
2023/10/09 00:13:31;;;;;;;4.22;0.88;;;;;;;;;;5100109;28;20035;-76
2023/10/09 00:16:01;;;;;;;4.72;1.40;;;;;;;;;;5095725;28;20404;-77
2023/10/09 00:18:33;;;;;;;1.88;1.05;;;;;;;;;;5096496;28;20103;-77
2023/10/09 00:21:11;;;;;;;3.35;1.27;;;;;;;;;;5100658;28;20036;-76
2023/10/09 00:23:36;;;;;;;2.58;1.30;;;;;;;;;;5096170;28;20035;-77
2023/10/09 00:26:08;;;;;;;6.70;1.35;;;;;;;;;;5085894;28;20023;-75
2023/10/09 00:28:35;;;;;;;3.53;1.15;;;;;;;;;;5097971;28;20038;-76
2023/10/09 00:31:04;;;;;;;3.97;1.27;;;;;;;;;;5097346;28;20104;-78
2023/10/09 00:33:32;;;;;;;1.40;1.23;;;;;;;;;;5097711;28;20080;-76
2023/10/09 00:36:08;;;;;;;3.30;0.93;;;;;;;;;;5087398;28;20057;-76
2023/10/09 00:38:34;;;;;;;3.53;1.27;;;;;;;;;;5097744;28;20092;-77
2023/10/09 00:43:36;;;;;;;2.95;1.02;;;;;;;;;;5095531;28;20080;-75
2023/10/09 00:46:03;;;;;;;3.63;0.85;;;;;;;;;;5091201;28;20026;-74
2023/10/09 00:48:37;;;;;;;2.90;1.05;;;;;;;;;;5097881;28;20036;-78
2023/10/09 00:51:15;;;;;;;1.80;0.90;;;;;;;;;;5099096;28;20027;-76
2023/10/09 00:53:41;;;;;;;6.60;1.10;;;;;;;;;;5097630;28;20284;-75
2023/10/09 00:56:18;;;;;;;2.42;1.10;;;;;;;;;;5097705;28;20486;-75
2023/10/09 00:58:46;;;;;;;1.10;0.73;;;;;;;;;;5094941;28;20051;-75
2023/10/09 01:01:15;;;;;;;2.78;0.90;;;;;;;;;;5098574;28;20046;-75
2023/10/09 01:03:41;;;;;;;;;;;;;;;;;;5096948;28;20427;-78
2023/10/09 01:11:09;;;;;;;1.10;0.88;;;;;;;;;;5095525;28;20107;-75
2023/10/09 01:13:52;;;;;;;0.93;0.82;;;;;;;;;;5097628;28;20465;-74
2023/10/09 01:16:21;;;;;;;2.20;1.00;;;;;;;;;;5097739;28;20059;-75
2023/10/09 01:18:50;;;;;;;2.10;0.80;;;;;;;;;;5097720;28;20039;-75
2023/10/09 01:21:17;;;;;;;2.63;0.90;;;;;;;;;;5096424;28;20052;-74
2023/10/09 01:23:59;;;;;;;1.10;0.93;;;;;;;;;;5097577;28;20027;-77
2023/10/09 01:26:24;;;;;;;1.15;1.05;;;;;;;;;;5091679;28;20028;-77
2023/10/09 01:28:50;;;;;;;1.88;1.00;;;;;;;;;;5084699;28;20038;-78
2023/10/09 01:31:15;;;;;;;2.47;0.60;;;;;;;;;;5083056;28;20028;-76
2023/10/09 01:33:41;;;;;;;1.55;0.77;;;;;;;;;;5096952;28;20478;-75
2023/10/09 01:36:09;;;;;;;5.15;1.42;;;;;;;;;;5097619;28;20024;-74
2023/10/09 01:38:40;;;;;;;2.90;0.90;;;;;;;;;;5095050;28;20467;-75
2023/10/09 01:41:15;;;;;;;1.95;1.00;;;;;;;;;;5096114;28;20127;-74
2023/10/09 01:43:44;;;;;;;3.67;1.08;;;;;;;;;;5095387;28;20020;-74
2023/10/09 01:46:11;;;;;;;2.75;1.10;;;;;;;;;;5097125;28;20027;-75
2023/10/09 01:48:39;;;;;;;1.33;1.05;;;;;;;;;;5099621;28;20435;-75
2023/10/09 01:51:05;;;;;;;1.90;1.20;;;;;;;;;;5097295;28;20062;-76
2023/10/09 01:53:33;;;;;;;1.73;1.02;;;;;;;;;;5099046;28;20063;-75
2023/10/09 01:56:08;;;;;;;1.73;1.13;;;;;;;;;;5098046;28;20031;-75
2023/10/09 01:58:34;;;;;;;3.38;1.50;;;;;;;;;;5099042;27;20034;-75
2023/10/09 02:01:02;;;;;;;4.90;1.00;;;;;;;;;;5095768;28;20027;-75
2023/10/09 02:03:29;;;;;;;2.85;1.02;;;;;;;;;;5097294;28;20024;-74
2023/10/09 02:06:24;;;;;;;1.58;1.05;;;;;;;;;;5096797;28;20019;-74
2023/10/09 02:08:46;;;;;;;2.20;1.10;;;;;;;;;;5097521;28;20111;-74
2023/10/09 02:11:14;;;;;;;1.25;1.00;;;;;;;;;;5097458;28;20027;-74
2023/10/09 02:13:41;;;;;;;1.85;1.08;;;;;;;;;;5095371;28;20040;-74
2023/10/09 02:16:28;;;;;;;1.45;1.17;;;;;;;;;;5096381;28;20028;-74
2023/10/09 02:18:53;;;;;;;2.30;1.00;;;;;;;;;;5093415;28;20031;-76
2023/10/09 02:21:33;;;;;;;4.07;0.93;;;;;;;;;;5084042;28;20030;-73
2023/10/09 02:24:02;;;;;;;;;;;;;;;;;;5096108;28;20350;-74
2023/10/09 02:26:46;;;;;;;;;;;;;;;;;;5096952;28;19992;-77
2023/10/09 02:31:51;;;;;;;1.02;0.90;;;;;;;;;;5092153;28;20039;-73
2023/10/09 02:34:17;;;;;;;1.15;1.00;;;;;;;;;;5096815;28;20054;-75
2023/10/09 02:36:42;;;;;;;1.33;1.08;;;;;;;;;;5095980;28;20040;-75
2023/10/09 02:39:22;;;;;;;1.05;0.88;;;;;;;;;;5087956;28;20030;-77
2023/10/09 02:41:50;;;;;;;3.60;0.95;;;;;;;;;;5082999;28;20084;-74
2023/10/09 02:44:15;;;;;;;4.63;1.20;;;;;;;;;;5091854;28;20036;-74
2023/10/09 02:46:41;;;;;;;1.40;1.00;;;;;;;;;;5095744;28;20031;-77
2023/10/09 02:49:09;;;;;;;3.10;1.00;;;;;;;;;;5097102;28;20032;-74
2023/10/09 02:51:41;;;;;;;1.05;0.90;;;;;;;;;;5096589;28;20039;-74
2023/10/09 02:54:34;;;;;;;5.07;1.00;;;;;;;;;;5092320;28;20031;-76
2023/10/09 02:57:07;;;;;;;3.65;1.27;;;;;;;;;;5097210;28;20034;-77
2023/10/09 02:59:33;;;;;;;1.58;0.98;;;;;;;;;;5095446;28;20131;-74
2023/10/09 03:01:59;;;;;;;2.53;1.17;;;;;;;;;;5096215;28;21288;-76
2023/10/09 03:04:30;;;;;;;2.45;1.20;;;;;;;;;;5094752;28;20031;-74
2023/10/09 03:06:57;;;;;;;3.30;0.90;;;;;;;;;;5096817;28;20036;-77
2023/10/09 03:09:28;;;;;;;2.47;1.15;;;;;;;;;;5085018;28;20031;-75
2023/10/09 03:11:54;;;;;;;2.15;1.40;;;;;;;;;;5096209;28;20030;-74
2023/10/09 03:14:20;;;;;;;1.88;1.20;;;;;;;;;;5094478;28;20039;-75
2023/10/09 03:16:48;;;;;;;3.05;1.50;;;;;;;;;;5096453;28;20024;-75
2023/10/09 03:19:13;;;;;;;1.25;1.00;;;;;;;;;;5090659;28;20069;-75
2023/10/09 03:21:38;;;;;;;1.15;1.02;;;;;;;;;;5083483;28;20100;-74
2023/10/09 03:24:05;;;;;;;1.73;1.10;;;;;;;;;;5094440;28;20088;-76
2023/10/09 03:26:31;;;;;;;2.08;1.30;;;;;;;;;;5098875;28;20023;-77
2023/10/09 03:28:56;;;;;;;1.52;1.08;;;;;;;;;;5101405;28;20027;-74
2023/10/09 03:31:22;;;;;;;1.38;1.27;;;;;;;;;;5099459;28;20031;-73
2023/10/09 03:33:47;;;;;;;1.73;1.17;;;;;;;;;;5090016;28;20040;-74
2023/10/09 03:36:12;;;;;;;2.38;1.05;;;;;;;;;;5094467;27;20042;-74
2023/10/09 03:38:38;;;;;;;2.50;1.20;;;;;;;;;;5099077;28;20107;-77
2023/10/09 03:41:07;;;;;;;1.52;1.10;;;;;;;;;;5098782;28;20055;-76
2023/10/09 03:43:37;;;;;;;1.48;1.25;;;;;;;;;;5099668;28;20102;-72
2023/10/09 03:46:04;;;;;;;1.20;1.10;;;;;;;;;;5098443;28;20032;-73
2023/10/09 03:48:33;;;;;;;1.33;1.13;;;;;;;;;;5099094;28;20727;-75
2023/10/09 03:51:08;;;;;;;2.80;1.40;;;;;;;;;;5099565;28;20020;-73
2023/10/09 03:53:36;;;;;;;1.80;1.35;;;;;;;;;;5097723;28;20419;-73
2023/10/09 03:56:05;;;;;;;1.60;1.40;;;;;;;;;;5099869;28;20468;-72
2023/10/09 03:58:33;;;;;;;1.37;1.20;;;;;;;;;;5096341;28;20039;-73
2023/10/09 04:00:58;;;;;;;1.60;1.40;;;;;;;;;;5095732;28;20088;-75
2023/10/09 04:03:24;;;;;;;1.60;1.50;;;;;;;;;;5100007;28;20036;-76
2023/10/09 04:05:53;;;;;;;1.98;1.33;;;;;;;;;;5099437;28;20032;-74
2023/10/09 04:08:28;;;;;;;2.40;1.57;;;;;;;;;;5088382;28;20067;-73
2023/10/09 04:10:54;;;;;;;1.92;1.30;;;;;;;;;;5098076;28;20019;-73
2023/10/09 04:13:22;;;;;;;2.40;1.50;;;;;;;;;;5084410;28;20027;-74
2023/10/09 04:15:53;;;;;;;2.45;2.00;;;;;;;;;;5083520;28;20760;-72
2023/10/09 04:18:20;;;;;;;6.18;2.30;;;;;;;;;;5082543;28;20036;-75
2023/10/09 04:23:49;;;;;;;2.50;2.15;;;;;;;;;;5084990;28;20050;-74
2023/10/09 04:26:15;;;;;;;3.78;2.22;;;;;;;;;;5085297;27;20103;-76
2023/10/09 04:28:42;;;;;;;5.10;2.40;;;;;;;;;;5093333;28;20053;-75
2023/10/09 04:31:07;;;;;;;3.97;2.60;;;;;;;;;;5098798;28;20058;-76
2023/10/09 04:41:27;;;;;;;2.28;1.45;;;;;;;;;;5084672;28;20124;-74
2023/10/09 04:44:18;;;;;;;1.95;1.77;;;;;;;;;;5074394;28;20027;-77
2023/10/09 04:46:44;;;;;;;3.85;1.92;;;;;;;;;;5093668;28;20381;-73
2023/10/09 04:49:27;;;;;;;2.83;1.52;;;;;;;;;;5085545;28;20036;-75
2023/10/09 04:52:05;;;;;;;2.20;1.88;;;;;;;;;;5086648;28;20084;-74
2023/10/09 04:54:39;;;;;;;2.78;1.70;;;;;;;;;;5089054;28;20409;-74
2023/10/09 04:57:13;;;;;;;3.47;1.88;;;;;;;;;;5090989;28;20122;-74
2023/10/09 04:59:46;;;;;;;3.90;2.05;;;;;;;;;;5088082;28;20075;-75
2023/10/09 05:02:19;;;;;;;3.05;1.52;;;;;;;;;;5076916;28;20032;-75
2023/10/09 05:04:47;;;;;;;3.40;2.17;;;;;;;;;;5086785;28;20024;-75
2023/10/09 05:10:24;;;;;;;3.72;2.53;;;;;;;;;;5006546;28;20064;-75
2023/10/09 05:12:57;;;;;;;5.40;2.80;;;;;;;;;;5013789;28;20049;-75
2023/10/09 05:15:28;;;;;;;6.88;2.72;;;;;;;;;;5027322;28;20107;-75
2023/10/09 05:17:56;;;;;;;4.05;2.20;;;;;;;;;;5027116;28;20474;-75
2023/10/09 05:22:57;;;;;;;5.13;2.25;;;;;;;;;;5026603;28;20037;-73
2023/10/09 05:31:15;;;;;;;5.47;2.13;;;;;;;;;;5004513;28;20033;-74
2023/10/09 05:33:45;;;;;;;4.18;2.22;;;;;;;;;;4998191;28;20578;-77
2023/10/09 05:39:17;;;;;;;6.78;2.60;;;;;;;;;;4994753;28;20459;-71
2023/10/09 05:41:59;;;;;;;3.38;2.13;;;;;;;;;;5000090;28;20066;-72
2023/10/09 06:08:26;;;;;;;3.92;2.58;;;;;;;;;;5083865;28;20928;-72
2023/10/09 06:11:05;;;;;;;7.63;2.85;;;;;;;;;;5084041;28;20032;-75
2023/10/09 06:13:37;;;;;;;4.65;2.50;;;;;;;;;;5085092;28;20031;-74
2023/10/09 06:24:17;;;;;;;4.05;2.33;;;;;;;;;;5085152;28;20164;-72
2023/10/09 06:27:56;;;;;;;2.92;2.45;;;;;;;;;;5083866;28;20463;-72
2023/10/09 06:29:35;;;;;;;3.70;2.75;;;;;;;;;;5085694;28;20050;-75
2023/10/09 06:32:34;;;;;;;3.63;3.15;;;;;;;;;;5084757;28;20038;-76
2023/10/09 06:43:26;;;;;;;5.38;3.60;;;;;;;;;;5083889;28;20047;-72
2023/10/09 06:58:57;;;;;;;4.63;2.72;;;;;;;;;;5076137;28;20046;-71
2023/10/09 07:01:39;;;;;;;3.03;2.30;;;;;;;;;;5080561;28;20027;-74
2023/10/09 07:04:45;;;;;;;2.97;2.33;;;;;;;;;;5078858;28;20427;-72
2023/10/09 07:07:20;;;;;;;2.38;2.15;;;;;;;;;;5080000;28;20023;-72
2023/10/09 07:10:28;;;;;;;3.35;2.15;;;;;;;;;;5073512;28;20043;-71
2023/10/09 07:12:42;;;;;;;4.20;2.45;;;;;;;;;;5074282;28;20028;-73
2023/10/09 07:20:13;;;;;;;3.97;2.00;;;;;;;;;;5096218;28;20488;-72
2023/10/09 07:22:56;;;;;;;1.80;1.70;;;;;;;;;;5093608;28;20035;-71
2023/10/09 07:26:17;;;;;;;3.50;2.05;;;;;;;;;;5095535;28;20034;-71
2023/10/09 07:28:29;;;;;;;2.20;1.50;;;;;;;;;;5097043;28;20567;-72
2023/10/09 07:30:57;;;;;;;2.20;1.90;;;;;;;;;;5096806;28;20080;-72
2023/10/09 07:33:33;;;;;;;1.65;1.55;;;;;;;;;;5095180;28;20428;-71
2023/10/09 07:36:05;;;;;;;3.72;1.88;;;;;;;;;;5096183;28;20101;-75
2023/10/09 07:38:37;;;;;;;3.45;1.70;;;;;;;;;;5092506;28;20027;-72
2023/10/09 07:48:54;;;;;;;2.83;1.52;;;;;;;;;;5093822;28;20108;-71
2023/10/09 07:51:23;;;;;;;2.53;1.33;;;;;;;;;;5094163;28;20020;-74
2023/10/09 07:53:57;;;;;;;3.20;2.40;;;;;;;;;;5093940;28;20088;-72
2023/10/09 07:56:30;;;;;;;1.50;1.40;;;;;;;;;;5097300;28;20110;-71
2023/10/09 07:59:00;;;;;;;4.57;2.95;;;;;;;;;;5093562;28;20038;-74
2023/10/09 08:04:05;;;;;;;5.10;2.20;;;;;;;;;;5093303;28;20020;-75
2023/10/09 08:06:39;;;;;;;3.10;1.80;;;;;;;;;;5093630;28;20056;-71
2023/10/09 08:17:10;;;;;;;2.70;2.30;;;;;;;;;;5078678;28;20466;-73
2023/10/09 08:19:51;;;;;;;4.82;3.30;;;;;;;;;;5076013;28;20322;-74
2023/10/09 08:22:42;;;;;;;8.73;7.50;;;;;;;;;;5082165;28;20035;-71
2023/10/09 08:25:03;;;;;;;2.00;1.80;;;;;;;;;;5070220;28;20032;-74
2023/10/09 08:33:02;;;;;;;2.95;1.40;;;;;;;;;;5094480;28;20482;-71
2023/10/09 08:35:32;;;;;;;2.13;1.70;;;;;;;;;;5084600;28;20344;-70
2023/10/09 08:38:10;;;;;;;2.70;2.13;;;;;;;;;;5095722;28;20111;-70
2023/10/09 08:40:40;;;;;;;2.17;1.98;;;;;;;;;;5076882;28;20198;-71
2023/10/09 08:43:18;;;;;;;1.63;1.50;;;;;;;;;;5096383;28;20028;-72
2023/10/09 08:45:47;;;;;;;6.97;6.28;;;;;;;;;;5096876;28;20350;-73
2023/10/09 08:48:15;;;;;;;4.03;3.63;;;;;;;;;;5097185;28;20098;-72
2023/10/09 08:50:44;;;;;;;2.38;1.40;;;;;;;;;;5095809;28;20047;-72
2023/10/09 08:53:10;;;;;;;3.17;2.10;;;;;;;;;;5096676;28;20016;-74
2023/10/09 08:55:39;;;;;;;2.38;1.63;;;;;;;;;;5095641;28;20026;-76
2023/10/09 08:58:30;;;;;;;2.80;1.67;;;;;;;;;;5097710;28;20439;-72
2023/10/09 09:00:51;;;;;;;2.00;1.85;;;;;;;;;;5073780;28;20044;-77
2023/10/09 09:03:17;;;;;;;3.00;1.73;;;;;;;;;;5068888;28;20455;-70
2023/10/09 09:05:49;;;;;;;1.38;1.27;;;;;;;;;;5071760;28;20114;-72
2023/10/09 09:08:23;;;;;;;1.85;1.73;;;;;;;;;;5070873;28;20495;-77
2023/10/09 09:10:51;;;;;;;1.67;1.58;;;;;;;;;;5082307;28;20407;-72
2023/10/09 09:13:18;;;;;;;2.55;1.73;;;;;;;;;;5070104;28;20096;-72
2023/10/09 09:15:46;;;;;;;2.10;1.50;;;;;;;;;;5069880;28;20023;-74
2023/10/09 09:18:17;;;;;;;2.40;1.63;;;;;;;;;;5071069;28;20024;-76
2023/10/09 09:20:45;;;;;;;1.73;1.50;;;;;;;;;;5073968;28;20028;-73
2023/10/09 09:23:12;;;;;;;1.52;1.42;;;;;;;;;;5072789;28;20028;-73
2023/10/09 09:25:44;;;;;;;2.17;1.70;;;;;;;;;;5069823;28;20107;-73
2023/10/09 09:28:12;;;;;;;1.70;1.48;;;;;;;;;;5074274;28;20058;-74
2023/10/09 09:30:40;;;;;;;4.22;1.80;;;;;;;;;;5085038;28;20055;-74
2023/10/09 09:33:26;;;;;;;2.13;1.70;;;;;;;;;;5085762;28;20020;-75
2023/10/09 09:35:59;;;;;;;2.70;1.80;;;;;;;;;;5079767;28;20479;-76
2023/10/09 09:38:28;;;;;;;2.05;1.60;;;;;;;;;;5079862;28;20335;-71
2023/10/09 09:40:55;;;;;;;9.68;5.38;;;;;;;;;;5095348;28;20107;-72
2023/10/09 09:43:22;;;;;;;3.58;2.22;;;;;;;;;;5084215;28;20469;-72
2023/10/09 09:45:49;;;;;;;3.28;1.83;;;;;;;;;;5083553;28;20024;-72
2023/10/09 09:48:16;;;;;;;3.92;2.15;;;;;;;;;;5094209;28;20016;-71
2023/10/09 09:50:44;;;;;;;2.30;2.10;;;;;;;;;;5094013;27;20051;-72
2023/10/09 09:53:19;;;;;;;2.10;1.90;;;;;;;;;;5095694;28;20027;-71
2023/10/09 09:55:51;;;;;;;3.15;2.00;;;;;;;;;;5098033;28;20642;-71
2023/10/09 09:58:20;;;;;;;4.38;2.10;;;;;;;;;;5094810;28;20020;-74
2023/10/09 10:00:52;;;;;;;3.50;2.05;;;;;;;;;;5093514;28;20090;-75
2023/10/09 10:03:24;;;;;;;3.30;1.92;;;;;;;;;;5112002;27;20044;-73
2023/10/09 10:05:50;;;;;;;10.48;9.35;;;;;;;;;;5094901;28;20070;-76
2023/10/09 10:08:20;;;;;;;5.15;3.95;;;;;;;;;;5097135;28;20461;-73
2023/10/09 10:10:55;;;;;;;4.20;3.90;;;;;;;;;;5097891;28;20024;-72
2023/10/09 10:13:39;;;;;;;3.40;3.20;;;;;;;;;;5094415;28;20457;-75
2023/10/09 10:16:38;;;;;;;5.45;2.95;;;;;;;;;;5098561;28;20123;-72
2023/10/09 10:19:06;;;;;;;2.67;2.00;;;;;;;;;;5093743;28;20076;-71
2023/10/09 10:24:06;;;;;;;2.80;2.00;;;;;;;;;;5095113;28;20039;-73
2023/10/09 10:26:33;;;;;;;3.83;2.08;;;;;;;;;;5098148;28;20142;-72
2023/10/09 10:32:18;;;;;;;4.57;3.47;;;;;;;;;;5113801;27;20031;-76
2023/10/09 10:34:46;;;;;;;1.98;1.75;;;;;;;;;;5112054;27;20047;-73
2023/10/09 10:37:13;;;;;;;3.28;1.88;;;;;;;;;;5110264;27;20043;-71
2023/10/09 10:39:49;;;;;;;3.25;2.10;;;;;;;;;;5112814;27;20081;-73
2023/10/09 10:42:36;;;;;;;6.10;2.40;;;;;;;;;;5114661;27;20161;-71
2023/10/09 10:45:34;;;;;;;2.58;2.05;;;;;;;;;;5114485;27;20067;-71
2023/10/09 10:47:49;;;;;;;6.50;5.90;;;;;;;;;;5115438;27;20429;-74
2023/10/09 10:53:15;;;;;;;5.22;4.30;;;;;;;;;;5115226;27;20193;-71
2023/10/09 11:01:50;;;;;;;3.80;3.50;;;;;;;;;;5112442;27;20109;-74
2023/10/09 11:04:24;;;;;;;4.40;3.92;;;;;;;;;;5114263;27;20071;-72
2023/10/09 11:06:51;;;;;;;6.55;5.85;;;;;;;;;;5111081;27;20055;-75
2023/10/09 11:09:23;;;;;;;3.83;3.15;;;;;;;;;;5102090;27;20983;-71
2023/10/09 11:11:55;;;;;;;4.10;2.78;;;;;;;;;;5095306;28;20019;-72
2023/10/09 11:14:23;;;;;;;4.20;2.50;;;;;;;;;;5096512;28;20019;-71
2023/10/09 11:16:49;;;;;;;2.80;2.38;;;;;;;;;;5096025;28;20024;-73
2023/10/09 11:22:28;;;;;;;4.78;2.50;;;;;;;;;;5096058;28;20068;-72
2023/10/09 11:24:40;;;;;;;2.63;2.30;;;;;;;;;;5097135;28;20031;-72
2023/10/09 11:27:06;;;;;;;7.43;2.80;;;;;;;;;;5093774;28;20445;-72
2023/10/09 11:32:22;;;;;;;3.75;2.75;;;;;;;;;;5094239;28;20024;-71
2023/10/09 11:34:53;;;;;;;2.67;2.25;;;;;;;;;;5092942;28;20059;-72
2023/10/09 11:37:38;;;;;;;5.40;2.47;;;;;;;;;;5094910;28;20101;-72
2023/10/09 11:40:04;;;;;;;2.95;2.30;;;;;;;;;;5094568;28;20027;-71
2023/10/09 11:42:36;;;;;;;2.40;2.20;;;;;;;;;;5097291;28;20040;-74
2023/10/09 11:45:24;;;;;;;3.35;2.40;;;;;;;;;;5098944;28;20403;-71
2023/10/09 11:47:59;;;;;;;2.72;2.30;;;;;;;;;;5099328;28;20020;-71
2023/10/09 11:50:43;;;;;;;6.72;3.00;;;;;;;;;;5098226;28;20042;-72
2023/10/09 11:53:17;;;;;;;2.95;2.30;;;;;;;;;;5101081;28;20027;-71
2023/10/09 11:55:48;;;;;;;2.28;2.08;;;;;;;;;;5098746;28;20016;-73
2023/10/09 11:58:13;;;;;;;5.38;3.47;;;;;;;;;;5099262;28;20744;-71
2023/10/09 12:00:45;;;;;;;2.25;1.98;;;;;;;;;;5099720;28;20036;-73
2023/10/09 12:03:11;;;;;;;4.30;2.40;;;;;;;;;;5100416;28;20020;-71
2023/10/09 12:05:37;;;;;;;4.78;1.92;;;;;;;;;;5100718;28;20039;-71
2023/10/09 12:08:08;;;;;;;3.03;2.42;;;;;;;;;;5097970;28;20076;-74
2023/10/09 12:10:38;;;;;;;2.78;2.10;;;;;;;;;;5099791;28;20152;-71
2023/10/09 12:13:04;;;;;;;2.17;1.85;;;;;;;;;;5100559;28;20026;-72
2023/10/09 12:15:36;;;;;;;1.88;1.55;;;;;;;;;;5097569;28;20369;-73
2023/10/09 12:18:03;;;;;;;10.18;4.93;;;;;;;;;;5098126;28;20443;-72
2023/10/09 12:20:31;;;;;;;2.55;1.88;;;;;;;;;;5098281;28;20101;-73
2023/10/09 12:23:00;;;;;;;3.65;1.90;;;;;;;;;;5100268;28;20038;-74
2023/10/09 12:25:25;;;;;;;1.77;1.47;;;;;;;;;;5097983;28;20172;-72
2023/10/09 12:27:57;;;;;;;2.95;1.95;;;;;;;;;;5098092;28;20774;-74
2023/10/09 12:30:26;;;;;;;2.97;1.60;;;;;;;;;;5099040;28;20058;-73
2023/10/09 12:32:52;;;;;;;4.78;2.03;;;;;;;;;;5099433;28;20055;-72
2023/10/09 12:35:18;;;;;;;5.57;1.83;;;;;;;;;;5098825;28;20039;-73
2023/10/09 12:37:43;;;;;;;4.10;2.03;;;;;;;;;;5130859;27;20032;-77
2023/10/09 12:40:10;;;;;;;6.18;2.03;;;;;;;;;;5098680;28;20481;-73
2023/10/09 12:42:36;;;;;;;2.13;1.80;;;;;;;;;;5096687;28;20036;-73
2023/10/09 12:45:08;;;;;;;3.28;2.03;;;;;;;;;;5096881;28;20375;-73
2023/10/09 12:47:33;;;;;;;5.15;1.70;;;;;;;;;;5099324;28;20037;-73
2023/10/09 12:49:59;;;;;;;3.95;1.63;;;;;;;;;;5098674;28;20031;-72
2023/10/09 12:52:29;;;;;;;4.22;1.67;;;;;;;;;;5099268;28;20032;-71
2023/10/09 12:54:55;;;;;;;2.42;1.95;;;;;;;;;;5097705;28;20085;-75
2023/10/09 12:57:20;;;;;;;6.63;2.13;;;;;;;;;;5098991;28;20031;-71
2023/10/09 12:59:48;;;;;;;5.05;1.83;;;;;;;;;;5098633;28;20763;-73
2023/10/09 13:02:28;;;;;;;7.63;2.30;;;;;;;;;;5098120;28;20016;-72
2023/10/09 13:04:53;;;;;;;;;;;;;;;;;;5100353;28;20020;-73
2023/10/09 13:07:21;;;;;;;8.17;2.20;;;;;;;;;;5097622;28;20367;-74
2023/10/09 13:10:08;;;;;;;4.70;2.15;;;;;;;;;;5096819;28;20039;-73
2023/10/09 13:12:32;;;;;;;5.32;1.83;;;;;;;;;;5099683;28;20092;-71
2023/10/09 13:14:58;;;;;;;2.95;1.63;;;;;;;;;;5095419;28;20043;-72
2023/10/09 13:17:26;;;;;;;4.95;1.65;;;;;;;;;;5077389;28;20028;-71
2023/10/09 13:19:52;;;;;;;2.17;1.75;;;;;;;;;;5076713;28;20089;-73
2023/10/09 13:22:17;;;;;;;4.65;1.90;;;;;;;;;;5071173;28;20044;-75
2023/10/09 13:24:43;;;;;;;1.83;1.52;;;;;;;;;;5079523;28;20076;-71
2023/10/09 13:27:11;;;;;;;5.25;2.42;;;;;;;;;;5082515;28;20065;-71
2023/10/09 13:29:39;;;;;;;3.00;1.77;;;;;;;;;;5074210;28;20031;-75
2023/10/09 13:32:13;;;;;;;2.20;1.67;;;;;;;;;;5071796;28;20052;-72
2023/10/09 13:34:44;;;;;;;10.18;2.25;;;;;;;;;;5072548;28;20040;-76
2023/10/09 13:37:13;;;;;;;5.22;2.13;;;;;;;;;;5072917;28;20019;-73
2023/10/09 13:39:51;;;;;;;6.68;2.38;;;;;;;;;;5071258;28;20047;-72
2023/10/09 13:42:17;;;;;;;5.45;2.60;;;;;;;;;;5070860;28;20102;-73
2023/10/09 13:44:42;;;;;;;3.03;2.08;;;;;;;;;;5070101;28;20044;-74
2023/10/09 13:47:18;;;;;;;4.45;2.70;;;;;;;;;;5071121;28;20052;-75
2023/10/09 13:49:44;;;;;;;2.70;2.13;;;;;;;;;;5071154;28;20370;-74
2023/10/09 13:52:10;;;;;;;3.88;2.30;;;;;;;;;;5071905;28;20028;-72
2023/10/09 13:57:04;;;;;;;6.47;3.13;;;;;;;;;;5070747;28;20032;-71
2023/10/09 13:59:29;;;;;;;5.40;2.88;;;;;;;;;;5077729;28;20076;-73
2023/10/09 14:01:55;;;;;;;8.10;3.10;;;;;;;;;;5092505;28;20035;-73
2023/10/09 14:04:22;;;;;;;8.82;2.92;;;;;;;;;;5098301;28;20422;-73
2023/10/09 14:06:48;;;;;;;14.40;4.22;;;;;;;;;;5096685;28;20032;-72
2023/10/09 14:09:37;;;;;;;7.50;2.67;;;;;;;;;;5096869;28;20024;-72
2023/10/09 14:12:06;;;;;;;7.03;3.15;;;;;;;;;;5096186;28;20032;-78
2023/10/09 14:14:40;;;;;;;8.13;3.13;;;;;;;;;;5097874;28;20436;-73
2023/10/09 14:17:12;;;;;;;5.60;3.13;;;;;;;;;;5094673;28;20138;-71
2023/10/09 14:19:38;;;;;;;4.18;3.00;;;;;;;;;;5091332;28;20166;-74
2023/10/09 14:22:05;;;;;;;3.30;2.50;;;;;;;;;;5095143;27;20028;-73
2023/10/09 14:24:32;;;;;;;3.78;2.63;;;;;;;;;;5092861;28;20069;-73
2023/10/09 14:26:59;;;;;;;3.00;2.72;;;;;;;;;;5097077;28;20061;-72
2023/10/09 14:29:26;;;;;;;3.08;2.50;;;;;;;;;;5094087;28;20038;-73
2023/10/09 14:32:00;;;;;;;4.90;2.50;;;;;;;;;;5083480;28;20026;-73
2023/10/09 14:34:29;;;;;;;4.07;2.40;;;;;;;;;;5095126;28;20044;-72
2023/10/09 14:36:54;;;;;;;;;;;;;;;;;;5097100;28;20104;-72
2023/10/09 14:39:19;;;;;;;2.83;2.60;;;;;;;;;;5094522;28;20475;-70
2023/10/09 14:41:45;;;;;;;3.03;2.60;;;;;;;;;;5083385;28;20035;-71
2023/10/09 14:44:16;;;;;;;2.67;2.25;;;;;;;;;;5084125;28;20008;-71
2023/10/09 14:46:41;;;;;;;5.47;2.78;;;;;;;;;;5081521;28;20058;-74
2023/10/09 14:49:06;;;;;;;2.92;2.53;;;;;;;;;;5082111;28;20434;-71
2023/10/09 14:51:32;;;;;;;3.88;2.70;;;;;;;;;;5083807;28;20035;-71
2023/10/09 14:53:57;;;;;;;4.03;3.05;;;;;;;;;;5082360;28;20019;-74
2023/10/09 14:56:29;;;;;;;4.57;2.58;;;;;;;;;;5083951;28;20115;-71
2023/10/09 14:58:58;;;;;;;3.88;2.50;;;;;;;;;;5082685;28;20096;-71
2023/10/09 15:01:25;;;;;;;3.58;2.40;;;;;;;;;;5082426;28;20035;-72
2023/10/09 15:03:53;;;;;;;4.32;2.83;;;;;;;;;;5084386;28;20042;-74
2023/10/09 15:06:18;;;;;;;7.75;3.45;;;;;;;;;;5082923;28;20487;-71
2023/10/09 15:08:44;;;;;;;10.15;4.80;;;;;;;;;;5080907;28;20063;-72
2023/10/09 15:11:09;;;;;;;7.47;4.30;;;;;;;;;;5083103;28;20023;-72
2023/10/09 15:13:35;;;;;;;7.32;4.03;;;;;;;;;;5082091;28;20031;-74
2023/10/09 15:16:02;;;;;;;4.95;3.70;;;;;;;;;;5096223;28;20466;-72
2023/10/09 15:18:28;;;;;;;6.80;4.15;;;;;;;;;;5093706;28;20490;-73
2023/10/09 15:20:54;;;;;;;9.50;4.35;;;;;;;;;;5095699;28;20350;-72
2023/10/09 15:23:22;;;;;;;6.07;3.90;;;;;;;;;;5094354;28;20032;-73
2023/10/09 15:25:51;;;;;;;4.53;3.20;;;;;;;;;;5095772;28;20028;-72
2023/10/09 15:28:17;;;;;;;4.28;2.70;;;;;;;;;;5095002;28;20023;-75
2023/10/09 15:30:42;;;;;;;3.92;2.80;;;;;;;;;;5093581;28;20047;-73
2023/10/09 15:33:08;;;;;;;3.97;2.33;;;;;;;;;;5094294;28;20023;-72
2023/10/09 15:35:34;;;;;;;5.82;2.65;;;;;;;;;;5094212;28;20043;-72
2023/10/09 15:38:03;;;;;;;3.85;2.97;;;;;;;;;;5094745;28;20446;-73
2023/10/09 15:40:33;;;;;;;;;;;;;;;;;;5095455;28;20354;-73
2023/10/09 15:42:59;;;;;;;8.52;4.28;;;;;;;;;;5094405;28;20350;-72
2023/10/09 15:45:26;;;;;;;11.23;5.07;;;;;;;;;;5096558;28;20039;-73
2023/10/09 15:47:53;;;;;;;52.67;47.05;;;;;;;;;;5089334;28;20062;-73
2023/10/09 15:50:19;;;;;;;69.20;62.20;;;;;;;;;;5087496;28;20063;-74
2023/10/09 15:52:47;;;;;;;34.10;30.80;;;;;;;;;;5082310;28;20032;-73
2023/10/09 15:55:13;;;;;;;135.47;102.13;;;;;;;;;;5094103;28;20460;-75
2023/10/09 15:57:41;;;;;;;36.15;26.67;;;;;;;;;;5094869;28;20016;-75
2023/10/09 16:00:13;;;;;;;11.23;7.40;;;;;;;;;;5095252;28;20115;-73
2023/10/09 16:02:43;;;;;;;7.20;3.65;;;;;;;;;;5091808;28;20039;-74
2023/10/09 16:05:11;;;;;;;;;;;;;;;;;;5088486;28;20020;-74
2023/10/09 16:07:38;;;;;;;6.35;4.28;;;;;;;;;;5093497;28;19911;-75
2023/10/09 16:10:05;;;;;;;7.03;3.90;;;;;;;;;;5096142;28;20032;-73
2023/10/09 16:12:31;;;;;;;7.13;4.13;;;;;;;;;;5089013;28;20030;-73
2023/10/09 16:14:56;;;;;;;6.57;4.10;;;;;;;;;;5090992;28;20023;-75
2023/10/09 16:17:24;;;;;;;6.22;5.18;;;;;;;;;;5095097;28;20024;-73
2023/10/09 16:19:50;;;;;;;10.82;7.90;;;;;;;;;;5093190;28;20046;-73
2023/10/09 16:22:17;;;;;;;16.67;14.73;;;;;;;;;;5095736;28;20149;-74
2023/10/09 16:24:44;;;;;;;25.75;22.27;;;;;;;;;;5083945;28;20655;-74
2023/10/09 16:27:10;;;;;;;24.70;20.95;;;;;;;;;;5094971;28;20740;-74
2023/10/09 16:29:35;;;;;;;18.05;16.15;;;;;;;;;;5095545;28;20032;-75
2023/10/09 16:32:01;;;;;;;17.38;14.00;;;;;;;;;;5083620;28;20106;-74
2023/10/09 16:34:26;;;;;;;12.43;8.40;;;;;;;;;;5097180;28;20063;-73
2023/10/09 16:36:52;;;;;;;8.18;5.88;;;;;;;;;;5089047;28;20103;-73
2023/10/09 16:39:22;;;;;;;9.55;7.57;;;;;;;;;;5075701;28;20378;-73
2023/10/09 16:41:48;;;;;;;13.82;10.13;;;;;;;;;;5082464;28;20031;-73
2023/10/09 16:44:17;;;;;;;13.80;8.45;;;;;;;;;;5069895;28;20042;-72
2023/10/09 16:46:45;;;;;;;14.80;12.13;;;;;;;;;;5072212;28;20077;-75
2023/10/09 16:49:13;;;;;;;13.10;11.73;;;;;;;;;;5071208;28;20444;-71
2023/10/09 16:51:39;;;;;;;18.00;16.10;;;;;;;;;;5072335;28;20016;-74
2023/10/09 16:54:05;;;;;;;30.63;24.52;;;;;;;;;;5074125;28;20028;-72
2023/10/09 16:56:33;;;;;;;48.25;39.83;;;;;;;;;;5085191;28;20020;-72
2023/10/09 16:59:00;;;;;;;57.95;42.67;;;;;;;;;;5085574;28;20020;-75
2023/10/09 17:01:27;;;;;;;36.05;27.27;;;;;;;;;;5085624;28;20027;-72
2023/10/09 17:03:57;;;;;;;15.50;12.07;;;;;;;;;;5086808;28;20020;-74
2023/10/09 17:06:24;;;;;;;14.27;11.30;;;;;;;;;;5084393;28;20032;-72
2023/10/09 17:08:50;;;;;;;14.35;12.13;;;;;;;;;;5083585;28;20102;-74
2023/10/09 17:11:19;;;;;;;14.35;10.43;;;;;;;;;;5077482;28;20366;-72
2023/10/09 17:13:47;;;;;;;10.98;9.13;;;;;;;;;;5079055;28;20020;-72
2023/10/09 17:16:17;;;;;;;12.30;9.60;;;;;;;;;;5118002;27;20028;-72
2023/10/09 17:18:44;;;;;;;;;;;;;;;;;;5080008;28;20117;-72
2023/10/09 17:21:11;;;;;;;13.85;9.27;;;;;;;;;;5080017;28;19934;-72
2023/10/09 17:23:37;;;;;;;18.08;8.93;;;;;;;;;;5087856;28;20035;-71